Terminal Aerodrome Forecast
Issued by NWS Buffalo, NY

Home | Current Version | Previous Version | Text Only | Print | Product List | Glossary On
Versions: 1 2 3 4 5 6 7 8 9 10 11 12 13 14 15 16 17 18 19 20 21 22 23 24 25 26 27 28 29 30
000
FTUS41 KBUF 270200 AAA
TAFROC
TAF AMD
KROC 270253Z 2703/2724 29006KT P6SM OVC040
     FM270730 29006KT P6SM OVC025
     FM271000 30006KT P6SM VCSH BKN007
     FM271300 32008KT P6SM SCT015 OVC025
     FM271800 32012G20KT P6SM OVC035=

USA.gov is the U.S. government's official web portal to all federal, state and local government web resources and services.